createdAt,value
2024-03-10T00:03:10.068Z,57.32
2024-03-10T00:06:36.273Z,57.42
2024-03-10T00:10:02.960Z,57.48
2024-03-10T00:13:29.564Z,57.45
2024-03-10T00:16:56.973Z,57.56
2024-03-10T00:20:23.634Z,57.45
2024-03-10T00:23:50.114Z,57.68
2024-03-10T00:27:17.021Z,57.64
2024-03-10T00:30:42.693Z,57.78
2024-03-10T00:34:09.662Z,57.72
2024-03-10T00:37:36.080Z,57.77
2024-03-10T00:41:01.918Z,57.80
2024-03-10T00:44:28.720Z,57.85
2024-03-10T00:47:56.353Z,57.90
2024-03-10T00:51:22.315Z,57.99
2024-03-10T00:54:49.008Z,57.93
2024-03-10T00:58:15.255Z,57.96
2024-03-10T01:01:41.467Z,58.01
2024-03-10T01:05:11.267Z,58.13
2024-03-10T01:08:37.742Z,58.01
2024-03-10T01:12:04.536Z,58.05
2024-03-10T01:15:33.377Z,58.09
2024-03-10T01:19:00.940Z,58.14
2024-03-10T01:22:27.483Z,58.15
2024-03-10T01:25:53.847Z,58.16
2024-03-10T01:29:20.218Z,58.14
2024-03-10T01:32:46.456Z,58.07
2024-03-10T01:36:12.730Z,58.25
2024-03-10T01:39:38.996Z,58.36
2024-03-10T01:43:07.115Z,58.32
2024-03-10T01:46:33.414Z,58.20
2024-03-10T01:49:59.944Z,58.37
2024-03-10T01:53:26.050Z,58.40
2024-03-10T01:56:54.627Z,58.38
2024-03-10T02:00:23.196Z,58.53
2024-03-10T02:03:51.089Z,58.60
2024-03-10T02:07:17.961Z,58.62
2024-03-10T02:10:47.045Z,58.75
2024-03-10T02:14:13.099Z,58.97
2024-03-10T02:17:39.458Z,58.94
2024-03-10T02:21:10.158Z,58.86
2024-03-10T02:24:40.022Z,58.88
2024-03-10T02:28:21.903Z,58.83
2024-03-10T02:32:19.159Z,58.79
2024-03-10T02:36:02.404Z,58.85
2024-03-10T02:40:00.488Z,58.80
2024-03-10T02:43:43.070Z,58.85
2024-03-10T02:47:15.881Z,58.79
2024-03-10T02:50:42.115Z,58.82
2024-03-10T02:54:09.479Z,58.87
2024-03-10T02:57:35.914Z,58.84
2024-03-10T03:01:01.691Z,58.89
2024-03-10T03:04:30.011Z,58.90
2024-03-10T03:07:57.394Z,58.83
2024-03-10T03:11:23.430Z,58.84
2024-03-10T03:14:49.256Z,58.81
2024-03-10T03:18:15.528Z,58.79
2024-03-10T03:21:41.938Z,58.86
2024-03-10T03:25:09.435Z,58.91
2024-03-10T03:28:35.633Z,59.18
2024-03-10T03:32:01.367Z,59.13
2024-03-10T03:35:27.964Z,59.18
2024-03-10T03:38:54.024Z,59.12
2024-03-10T03:42:20.470Z,59.07
2024-03-10T03:45:46.598Z,59.11
2024-03-10T03:49:12.644Z,59.28
2024-03-10T03:52:42.449Z,59.14
2024-03-10T03:56:10.523Z,59.33
2024-03-10T03:59:36.959Z,59.38
2024-03-10T04:03:03.062Z,59.47
2024-03-10T04:06:30.264Z,59.54
2024-03-10T04:09:57.928Z,59.51
2024-03-10T04:13:23.913Z,59.73
2024-03-10T04:16:50.477Z,59.58
2024-03-10T04:20:17.311Z,59.61
2024-03-10T04:23:44.009Z,59.63
2024-03-10T04:27:10.872Z,59.79
2024-03-10T04:30:37.385Z,59.69
2024-03-10T04:34:03.354Z,59.74
2024-03-10T04:37:30.060Z,59.77
2024-03-10T04:40:56.121Z,59.92
2024-03-10T04:44:22.461Z,59.78
2024-03-10T04:47:48.679Z,59.90
2024-03-10T04:51:15.825Z,60.03
2024-03-10T04:54:42.661Z,60.15
2024-03-10T04:58:09.732Z,60.18
2024-03-10T05:01:36.071Z,60.26
2024-03-10T05:05:04.811Z,60.26
2024-03-10T05:08:31.145Z,60.21
2024-03-10T05:11:57.367Z,60.25
2024-03-10T05:15:24.069Z,60.16
2024-03-10T05:18:50.202Z,60.27
2024-03-10T05:22:16.326Z,60.33
2024-03-10T05:25:42.459Z,60.16
2024-03-10T05:29:08.424Z,60.38
2024-03-10T05:32:34.530Z,60.20
2024-03-10T05:36:03.228Z,60.30
2024-03-10T05:39:29.113Z,60.36
2024-03-10T05:42:54.760Z,60.27
2024-03-10T05:46:20.895Z,60.37
2024-03-10T05:49:49.033Z,60.39
2024-03-10T05:53:15.457Z,60.33
2024-03-10T05:56:41.273Z,60.36
2024-03-10T06:00:15.855Z,60.39
2024-03-10T06:03:41.803Z,60.46
2024-03-10T06:07:08.242Z,60.66
2024-03-10T06:10:34.274Z,60.56
2024-03-10T06:14:00.469Z,60.73
2024-03-10T06:17:32.979Z,60.84
2024-03-10T06:21:17.256Z,61.01
2024-03-10T06:25:00.893Z,60.95
2024-03-10T06:28:25.185Z,60.86
2024-03-10T06:31:51.019Z,60.96
2024-03-10T06:35:16.870Z,61.02
2024-03-10T06:38:44.132Z,60.98
2024-03-10T06:42:10.219Z,61.21
2024-03-10T06:45:36.459Z,61.12
2024-03-10T06:49:02.501Z,61.08
2024-03-10T06:52:28.414Z,61.27
2024-03-10T06:55:56.001Z,61.29
2024-03-10T06:59:24.326Z,61.03
2024-03-10T07:02:50.453Z,61.31
2024-03-10T07:06:23.115Z,61.46
2024-03-10T07:09:49.220Z,61.39
2024-03-10T07:13:15.263Z,61.43
2024-03-10T07:16:41.889Z,61.40
2024-03-10T07:20:11.914Z,61.46
2024-03-10T07:23:38.209Z,61.53
2024-03-10T07:27:04.497Z,61.44
2024-03-10T07:30:30.642Z,61.38
2024-03-10T07:33:56.442Z,61.37
2024-03-10T07:37:22.780Z,61.34
2024-03-10T07:40:53.642Z,61.29
2024-03-10T07:44:21.026Z,61.45
2024-03-10T07:47:48.606Z,61.29
2024-03-10T07:51:14.794Z,61.27
2024-03-10T07:54:40.826Z,61.36
2024-03-10T07:58:08.188Z,61.33
2024-03-10T08:01:34.453Z,61.37
2024-03-10T08:05:00.741Z,61.36
2024-03-10T08:08:27.062Z,61.45
2024-03-10T08:11:54.631Z,61.43
2024-03-10T08:15:20.995Z,61.54
2024-03-10T08:18:49.629Z,61.28
2024-03-10T08:22:17.175Z,61.48
2024-03-10T08:25:46.733Z,61.53
2024-03-10T08:29:13.460Z,61.37
2024-03-10T08:32:40.173Z,61.25
2024-03-10T08:36:10.516Z,61.42
2024-03-10T08:39:36.625Z,61.39
2024-03-10T08:43:02.662Z,61.37
2024-03-10T08:46:28.614Z,61.34
2024-03-10T08:49:54.583Z,61.34
2024-03-10T08:53:23.294Z,61.21
2024-03-10T08:56:51.080Z,61.36
2024-03-10T09:00:19.291Z,61.51
2024-03-10T09:03:45.092Z,61.39
2024-03-10T09:07:11.323Z,61.43
2024-03-10T09:10:44.608Z,61.39
2024-03-10T09:14:20.636Z,61.23
2024-03-10T09:17:47.382Z,61.10
2024-03-10T09:21:15.516Z,61.02
2024-03-10T09:24:44.090Z,60.98
2024-03-10T09:28:10.557Z,61.02
2024-03-10T09:31:38.941Z,61.13
2024-03-10T09:35:05.331Z,60.57
2024-03-10T09:38:31.488Z,60.72
2024-03-10T09:41:58.572Z,60.74
2024-03-10T09:45:27.603Z,60.63
2024-03-10T09:48:54.095Z,60.35
2024-03-10T09:52:21.051Z,60.73
2024-03-10T09:55:50.006Z,60.39
2024-03-10T09:59:25.804Z,60.61
2024-03-10T10:02:54.656Z,60.60
2024-03-10T10:06:24.467Z,60.44
2024-03-10T10:10:00.169Z,60.18
2024-03-10T10:13:28.289Z,59.94
2024-03-10T10:16:57.876Z,60.04
2024-03-10T10:20:26.707Z,59.97
2024-03-10T10:23:53.730Z,60.08
2024-03-10T10:27:19.753Z,59.99
2024-03-10T10:30:46.194Z,59.94
2024-03-10T10:34:16.972Z,60.10
2024-03-10T10:37:48.428Z,59.86
2024-03-10T10:41:15.081Z,59.75
2024-03-10T10:44:42.296Z,60.02
2024-03-10T10:48:11.135Z,59.93
2024-03-10T10:51:37.539Z,59.69
2024-03-10T10:55:03.673Z,59.72
2024-03-10T10:58:36.467Z,59.76
2024-03-10T11:02:21.419Z,59.64
2024-03-10T11:06:25.562Z,59.34
2024-03-10T11:09:52.375Z,59.19
2024-03-10T11:13:20.252Z,59.15
2024-03-10T11:16:47.274Z,59.05
2024-03-10T11:20:15.054Z,58.96
2024-03-10T11:23:49.544Z,58.75
2024-03-10T11:27:19.954Z,58.49
2024-03-10T11:30:52.813Z,58.42
2024-03-10T11:34:19.916Z,58.06
2024-03-10T11:37:47.119Z,57.89
2024-03-10T11:41:13.584Z,57.85
2024-03-10T11:44:39.824Z,57.73
2024-03-10T11:48:07.891Z,57.70
2024-03-10T11:51:36.533Z,57.63
2024-03-10T11:55:13.170Z,57.52
2024-03-10T11:58:40.051Z,57.87
2024-03-10T12:02:06.473Z,57.35
2024-03-10T12:05:33.246Z,57.20
2024-03-10T12:08:59.774Z,57.18
2024-03-10T12:12:33.966Z,57.03
2024-03-10T12:16:04.335Z,56.72
2024-03-10T12:19:31.057Z,56.59
2024-03-10T12:22:59.868Z,56.45
2024-03-10T12:26:30.235Z,56.55
2024-03-10T12:29:57.879Z,56.46
2024-03-10T12:33:24.042Z,56.34
2024-03-10T12:36:50.032Z,56.09
2024-03-10T12:40:17.814Z,55.99
2024-03-10T12:43:45.793Z,56.13
2024-03-10T12:47:12.629Z,55.96
2024-03-10T12:50:41.055Z,55.29
2024-03-10T12:54:08.302Z,54.77
2024-03-10T12:57:34.359Z,54.67
2024-03-10T13:01:00.060Z,54.65
2024-03-10T13:04:25.754Z,54.39
2024-03-10T13:07:51.938Z,54.38
2024-03-10T13:11:19.202Z,54.42
2024-03-10T13:14:45.470Z,54.17
2024-03-10T13:18:14.239Z,54.17
2024-03-10T13:21:41.436Z,54.26
2024-03-10T13:25:09.425Z,54.25
2024-03-10T13:28:36.010Z,54.52
2024-03-10T13:32:02.642Z,54.19
2024-03-10T13:35:29.049Z,53.97
2024-03-10T13:38:55.344Z,53.76
2024-03-10T13:42:21.302Z,54.04
2024-03-10T13:45:47.235Z,54.02
2024-03-10T13:49:14.078Z,53.93
2024-03-10T13:52:40.516Z,53.84
2024-03-10T13:56:07.080Z,53.61
2024-03-10T13:59:33.541Z,53.45
2024-03-10T14:03:03.520Z,53.71
2024-03-10T14:06:32.764Z,53.56
2024-03-10T14:09:59.274Z,53.56
2024-03-10T14:13:25.297Z,53.36
2024-03-10T14:16:52.341Z,53.55
2024-03-10T14:20:20.224Z,53.63
2024-03-10T14:23:46.615Z,53.63
2024-03-10T14:27:13.012Z,53.72
2024-03-10T14:30:41.628Z,53.43
2024-03-10T14:34:07.584Z,53.48
2024-03-10T14:37:36.126Z,53.69
2024-03-10T14:41:02.740Z,53.31
2024-03-10T14:44:28.910Z,53.29
2024-03-10T14:47:56.191Z,53.12
2024-03-10T14:51:23.513Z,53.13
2024-03-10T14:54:49.749Z,53.03
2024-03-10T14:58:16.003Z,52.98
2024-03-10T15:01:44.811Z,53.18
2024-03-10T15:05:14.358Z,53.37
2024-03-10T15:08:40.803Z,53.24
2024-03-10T15:12:08.480Z,53.00
2024-03-10T15:15:34.239Z,53.10
2024-03-10T15:19:00.476Z,53.02
2024-03-10T15:22:26.802Z,53.09
2024-03-10T15:25:55.580Z,52.96
2024-03-10T15:29:23.805Z,53.12
2024-03-10T15:32:51.846Z,52.91
2024-03-10T15:36:18.732Z,53.06
2024-03-10T15:39:46.386Z,52.92
2024-03-10T15:43:14.266Z,53.05
2024-03-10T15:46:41.064Z,52.99
2024-03-10T15:50:11.165Z,53.02
2024-03-10T15:53:37.582Z,53.01
2024-03-10T15:57:05.767Z,53.12
2024-03-10T16:00:32.182Z,53.07
2024-03-10T16:04:01.942Z,53.15
2024-03-10T16:07:28.161Z,53.05
2024-03-10T16:10:54.709Z,53.07
2024-03-10T16:14:21.660Z,52.87
2024-03-10T16:17:48.341Z,52.90
2024-03-10T16:21:19.541Z,52.92
2024-03-10T16:24:46.786Z,53.13
2024-03-10T16:28:12.947Z,53.04
2024-03-10T16:31:39.156Z,53.10
2024-03-10T16:35:05.609Z,53.09
2024-03-10T16:38:31.757Z,53.17
2024-03-10T16:41:58.643Z,53.25
2024-03-10T16:45:24.947Z,53.27
2024-03-10T16:48:51.111Z,53.30
2024-03-10T16:52:19.096Z,53.50
2024-03-10T16:55:49.045Z,53.47
2024-03-10T16:59:18.702Z,53.43
2024-03-10T17:02:46.119Z,53.58
2024-03-10T17:06:13.600Z,53.39
2024-03-10T17:09:40.144Z,53.59
2024-03-10T17:13:09.134Z,53.49
2024-03-10T17:16:35.751Z,53.75
2024-03-10T17:20:02.662Z,53.57
2024-03-10T17:23:29.205Z,53.77
2024-03-10T17:26:55.812Z,53.77
2024-03-10T17:30:22.268Z,53.93
2024-03-10T17:33:49.173Z,53.93
2024-03-10T17:37:16.546Z,54.11
2024-03-10T17:40:42.714Z,53.96
2024-03-10T17:44:09.055Z,54.18
2024-03-10T17:47:37.114Z,54.35
2024-03-10T17:51:06.024Z,54.39
2024-03-10T17:54:34.105Z,54.22
2024-03-10T17:58:01.772Z,54.36
2024-03-10T18:01:27.719Z,54.54
2024-03-10T18:04:54.757Z,54.69
2024-03-10T18:08:22.238Z,54.57
2024-03-10T18:11:50.118Z,54.52
2024-03-10T18:15:20.701Z,54.72
2024-03-10T18:18:48.678Z,54.90
2024-03-10T18:22:17.037Z,54.87
2024-03-10T18:25:45.071Z,54.64
2024-03-10T18:29:14.414Z,54.89
2024-03-10T18:32:42.709Z,54.75
2024-03-10T18:36:10.644Z,54.99
2024-03-10T18:39:37.960Z,54.92
2024-03-10T18:43:05.483Z,54.93
2024-03-10T18:46:33.204Z,55.14
2024-03-10T18:49:59.083Z,55.02
2024-03-10T18:53:25.601Z,55.23
2024-03-10T18:56:52.958Z,55.35
2024-03-10T19:00:19.129Z,55.42
2024-03-10T19:03:48.418Z,55.41
2024-03-10T19:07:17.007Z,55.48
2024-03-10T19:10:43.000Z,55.16
2024-03-10T19:14:09.280Z,55.28
2024-03-10T19:17:35.516Z,55.86
2024-03-10T19:21:04.374Z,55.47
2024-03-10T19:24:31.071Z,55.86
2024-03-10T19:27:56.843Z,55.81
2024-03-10T19:31:22.800Z,55.75
2024-03-10T19:34:48.693Z,55.60
2024-03-10T19:38:14.772Z,55.84
2024-03-10T19:41:41.273Z,55.84
2024-03-10T19:45:08.656Z,55.68
2024-03-10T19:48:34.731Z,55.76
2024-03-10T19:52:00.882Z,55.73
2024-03-10T19:55:27.017Z,55.71
2024-03-10T19:58:55.298Z,55.98
2024-03-10T20:02:21.147Z,56.01
2024-03-10T20:05:47.321Z,55.91
2024-03-10T20:09:18.031Z,55.95
2024-03-10T20:12:44.053Z,56.20
2024-03-10T20:16:10.837Z,56.17
2024-03-10T20:19:36.873Z,56.04
2024-03-10T20:23:02.995Z,56.24
2024-03-10T20:26:28.824Z,56.08
2024-03-10T20:29:54.497Z,56.24
2024-03-10T20:33:20.334Z,55.97
2024-03-10T20:36:46.501Z,56.29
2024-03-10T20:40:14.467Z,56.52
2024-03-10T20:43:40.401Z,56.36
2024-03-10T20:47:07.691Z,56.23
2024-03-10T20:50:34.473Z,56.38
2024-03-10T20:54:00.215Z,56.48
2024-03-10T20:57:25.919Z,56.19
2024-03-10T21:00:55.956Z,56.25
2024-03-10T21:04:22.062Z,56.70
2024-03-10T21:07:48.343Z,56.55
2024-03-10T21:11:14.841Z,56.61
2024-03-10T21:14:42.155Z,56.73
2024-03-10T21:18:09.577Z,56.63
2024-03-10T21:21:35.988Z,56.57
2024-03-10T21:25:02.196Z,56.61
2024-03-10T21:28:29.673Z,56.62
2024-03-10T21:31:55.551Z,56.58
2024-03-10T21:35:24.587Z,56.79
2024-03-10T21:38:51.998Z,56.79
2024-03-10T21:42:19.523Z,57.03
2024-03-10T21:45:46.656Z,56.98
2024-03-10T21:49:12.864Z,57.01
2024-03-10T21:52:39.384Z,56.93
2024-03-10T21:56:06.370Z,57.11
2024-03-10T21:59:32.164Z,56.86
2024-03-10T22:02:58.491Z,56.92
2024-03-10T22:06:24.100Z,56.91
2024-03-10T22:09:50.268Z,57.04
2024-03-10T22:13:15.778Z,56.96
2024-03-10T22:16:41.945Z,56.79
2024-03-10T22:20:13.878Z,56.94
2024-03-10T22:23:39.644Z,57.11
2024-03-10T22:27:06.323Z,56.81
2024-03-10T22:30:33.155Z,56.92
2024-03-10T22:33:58.992Z,57.17
2024-03-10T22:37:25.760Z,57.10
2024-03-10T22:40:53.200Z,56.99
2024-03-10T22:44:19.883Z,57.49
2024-03-10T22:47:47.224Z,57.14
2024-03-10T22:51:13.152Z,57.13
2024-03-10T22:54:39.294Z,57.28
2024-03-10T22:58:06.008Z,57.36
2024-03-10T23:01:33.951Z,57.47
2024-03-10T23:05:01.513Z,57.39
2024-03-10T23:08:27.372Z,57.40
2024-03-10T23:11:53.996Z,57.41
2024-03-10T23:15:22.380Z,57.42
2024-03-10T23:18:51.240Z,57.27
2024-03-10T23:22:18.001Z,57.46
2024-03-10T23:25:44.048Z,57.20
2024-03-10T23:29:10.067Z,57.49
2024-03-10T23:32:36.290Z,57.55
2024-03-10T23:36:04.493Z,57.67
2024-03-10T23:39:32.446Z,57.81
2024-03-10T23:42:58.823Z,57.84
2024-03-10T23:46:25.221Z,57.75
2024-03-10T23:49:50.808Z,57.55
2024-03-10T23:53:16.899Z,57.85
2024-03-10T23:56:42.924Z,57.84
